Time;durP1;ratioP1;P1;durP2;ratioP2;P2;SDS_P1;SDS_P2;PMS_P1;PMS_P2;Temp;Humidity;BMP_temperature;BMP_pressure;BME280_temperature;BME280_humidity;BME280_pressure;Samples;Min_cycle;Max_cycle;Signal;HPM_P1;HPM_P2
2023/10/31 00:00:20;;;;;;;19.40;10.00;;;;;;;10.17;74.54;100370.77;107585;1258;60494;-72
2023/10/31 00:02:47;;;;;;;17.00;9.40;;;;;;;10.18;74.67;100369.74;107661;1256;60422;-72
2023/10/31 00:05:15;;;;;;;17.90;9.60;;;;;;;10.19;74.72;100367.62;107740;1256;72913;-71
2023/10/31 00:07:46;;;;;;;17.20;9.60;;;;;;;10.20;74.74;100363.41;107686;1256;72955;-71
2023/10/31 00:10:14;;;;;;;14.80;9.50;;;;;;;10.22;74.77;100361.55;108047;1258;71869;-70
2023/10/31 00:12:42;;;;;;;16.60;9.50;;;;;;;10.24;74.95;100362.31;107785;1256;60810;-71
2023/10/31 00:15:10;;;;;;;17.00;10.20;;;;;;;10.25;74.97;100358.31;107822;1256;59536;-71
2023/10/31 00:17:38;;;;;;;18.30;10.10;;;;;;;10.26;75.08;100356.04;108198;1257;72614;-72
2023/10/31 00:20:07;;;;;;;16.10;10.10;;;;;;;10.26;75.05;100347.78;107677;1260;72731;-72
2023/10/31 00:22:34;;;;;;;19.40;10.90;;;;;;;10.25;75.06;100344.76;107847;1257;72735;-72
2023/10/31 00:25:03;;;;;;;18.60;10.70;;;;;;;10.24;75.07;100343.52;107695;1257;61715;-72
2023/10/31 00:27:31;;;;;;;17.10;10.20;;;;;;;10.23;75.06;100343.40;107755;1257;60023;-72
2023/10/31 00:29:58;;;;;;;19.20;11.00;;;;;;;10.21;74.97;100345.33;107754;1256;72994;-72
2023/10/31 00:32:26;;;;;;;18.60;11.00;;;;;;;10.19;75.06;100347.60;107633;1260;71929;-71
2023/10/31 00:34:54;;;;;;;17.70;10.60;;;;;;;10.18;75.12;100347.86;108141;1257;71392;-71
2023/10/31 00:37:21;;;;;;;18.10;10.30;;;;;;;10.18;75.16;100341.52;108104;1257;61844;-71
2023/10/31 00:39:49;;;;;;;20.60;11.30;;;;;;;10.19;75.27;100332.66;107635;1256;60290;-71
2023/10/31 00:42:17;;;;;;;17.90;10.80;;;;;;;10.19;75.26;100328.11;107691;1257;72854;-73
2023/10/31 00:44:44;;;;;;;18.10;10.90;;;;;;;10.18;75.28;100328.76;107629;1256;72903;-72
2023/10/31 00:47:12;;;;;;;18.80;11.60;;;;;;;10.18;75.31;100322.45;107799;1256;72189;-70
2023/10/31 00:49:40;;;;;;;18.90;10.30;;;;;;;10.17;75.37;100318.06;107760;1257;61709;-70
2023/10/31 00:52:07;;;;;;;18.70;10.30;;;;;;;10.15;75.26;100309.79;108159;1257;60311;-72
2023/10/31 00:54:36;;;;;;;20.10;10.80;;;;;;;10.12;75.24;100306.41;107633;1256;72663;-73
2023/10/31 00:57:03;;;;;;;19.40;11.20;;;;;;;10.11;75.25;100301.23;107789;1257;72506;-72
2023/10/31 00:59:31;;;;;;;20.20;11.60;;;;;;;10.12;75.22;100310.36;109099;1256;71599;-73
2023/10/31 01:01:59;;;;;;;17.30;10.90;;;;;;;10.14;75.38;100308.18;107869;1257;61681;-71
2023/10/31 01:04:26;;;;;;;19.50;11.40;;;;;;;10.15;75.41;100303.80;108064;1257;60591;-71
2023/10/31 01:06:54;;;;;;;20.30;10.80;;;;;;;10.15;75.56;100315.66;107754;1256;73007;-70
2023/10/31 01:09:22;;;;;;;21.70;11.10;;;;;;;10.15;75.61;100326.07;107715;1256;72695;-71
2023/10/31 01:11:52;;;;;;;17.80;10.90;;;;;;;10.14;75.57;100320.31;107723;1260;71602;-73
2023/10/31 01:14:20;;;;;;;19.60;11.30;;;;;;;10.17;75.62;100334.24;107839;1256;60795;-72
2023/10/31 01:16:48;;;;;;;18.50;11.20;;;;;;;10.20;75.65;100331.64;107854;1257;60342;-72
2023/10/31 01:19:15;;;;;;;17.30;11.20;;;;;;;10.23;75.78;100330.49;107812;1256;72959;-72
2023/10/31 01:21:43;;;;;;;19.90;11.30;;;;;;;10.26;75.61;100327.10;107833;1257;73032;-72
2023/10/31 01:24:11;;;;;;;17.50;11.30;;;;;;;10.26;75.51;100329.34;107737;1259;72738;-72
2023/10/31 01:26:43;;;;;;;21.20;12.00;;;;;;;10.26;75.55;100329.77;107533;1257;62158;-72
2023/10/31 01:29:10;;;;;;;21.10;12.20;;;;;;;10.29;75.44;100330.27;107668;1261;60362;-72
2023/10/31 01:31:41;;;;;;;19.40;11.30;;;;;;;10.28;75.34;100320.40;107697;1256;72637;-72
2023/10/31 01:34:25;;;;;;;17.80;10.80;;;;;;;10.26;75.39;100323.30;107995;1256;71304;-72
2023/10/31 01:36:53;;;;;;;19.70;11.10;;;;;;;10.26;75.27;100328.39;108717;1257;71441;-72
2023/10/31 01:39:20;;;;;;;21.30;12.00;;;;;;;10.23;75.31;100324.24;107735;1255;61397;-71
2023/10/31 01:41:48;;;;;;;17.90;11.00;;;;;;;10.20;75.03;100320.02;107533;1257;59759;-71
2023/10/31 01:44:16;;;;;;;17.40;10.20;;;;;;;10.18;75.08;100320.85;108577;1257;73648;-71
2023/10/31 01:46:44;;;;;;;19.00;11.40;;;;;;;10.14;74.89;100316.62;107620;1258;72992;-71
2023/10/31 01:49:13;;;;;;;18.40;11.00;;;;;;;10.07;74.78;100316.59;108134;1258;74791;-71
2023/10/31 01:51:41;;;;;;;20.10;12.00;;;;;;;10.03;74.83;100319.50;107846;1260;61733;-72
2023/10/31 01:54:08;;;;;;;18.20;10.90;;;;;;;10.00;75.03;100320.50;107926;1256;61025;-71
2023/10/31 01:56:36;;;;;;;18.00;11.10;;;;;;;9.98;74.98;100325.02;107817;1255;73314;-71
2023/10/31 01:59:05;;;;;;;21.50;11.60;;;;;;;9.96;75.03;100317.42;107612;1262;71521;-72
2023/10/31 02:01:39;;;;;;;21.30;12.00;;;;;;;9.94;75.12;100324.89;107723;1260;72928;-71
2023/10/31 02:04:06;;;;;;;20.80;11.60;;;;;;;9.92;75.15;100322.27;107711;1256;62136;-71
2023/10/31 02:06:34;;;;;;;18.20;10.50;;;;;;;9.91;75.14;100321.98;107711;1260;61100;-71
2023/10/31 02:09:02;;;;;;;19.50;11.20;;;;;;;9.88;75.26;100314.98;108068;1257;74787;-71
2023/10/31 02:11:29;;;;;;;19.70;10.90;;;;;;;9.87;75.41;100311.77;107780;1256;72874;-71
2023/10/31 02:13:57;;;;;;;18.10;11.00;;;;;;;9.86;75.48;100312.77;107787;1257;70452;-71
2023/10/31 02:16:25;;;;;;;18.10;10.60;;;;;;;9.85;75.42;100315.56;108919;1257;60376;-72
2023/10/31 02:18:53;;;;;;;19.30;10.80;;;;;;;9.84;75.47;100312.52;108159;1257;61183;-72
2023/10/31 02:21:21;;;;;;;16.80;10.70;;;;;;;9.83;75.49;100314.89;107825;1257;74544;-72
2023/10/31 02:24:07;;;;;;;20.10;10.20;;;;;;;9.81;75.38;100315.95;107825;1257;72742;-71
2023/10/31 02:26:35;;;;;;;15.50;10.00;;;;;;;9.78;75.42;100320.10;107797;1257;71604;-71
2023/10/31 02:29:03;;;;;;;18.80;10.40;;;;;;;9.75;75.34;100319.23;107844;1256;61766;-72
2023/10/31 02:31:31;;;;;;;19.20;10.80;;;;;;;9.73;75.37;100315.90;107847;1256;61241;-72
2023/10/31 02:33:58;;;;;;;16.90;10.70;;;;;;;9.72;75.48;100319.20;107567;1256;74705;-71
2023/10/31 02:36:26;;;;;;;17.00;11.40;;;;;;;9.70;75.42;100318.22;107642;1256;71494;-72
2023/10/31 02:38:54;;;;;;;20.20;11.20;;;;;;;9.68;75.54;100319.34;107976;1256;71076;-71
2023/10/31 02:41:23;;;;;;;19.50;11.30;;;;;;;9.69;75.67;100319.20;107657;1256;61768;-72
2023/10/31 02:43:50;;;;;;;21.60;11.70;;;;;;;9.70;75.66;100321.48;107580;1256;61147;-71
2023/10/31 02:46:19;;;;;;;21.60;10.50;;;;;;;9.72;75.85;100318.09;108540;1256;73432;-72
2023/10/31 02:48:48;;;;;;;18.20;10.10;;;;;;;9.72;75.83;100317.07;108133;1256;70953;-71
2023/10/31 02:51:15;;;;;;;17.40;10.60;;;;;;;9.72;75.72;100310.20;107600;1256;71149;-73
2023/10/31 02:53:43;;;;;;;17.70;11.00;;;;;;;9.71;75.70;100308.21;107691;1256;61759;-71
2023/10/31 02:56:10;;;;;;;16.70;10.90;;;;;;;9.69;75.64;100305.38;107837;1256;59963;-73
2023/10/31 02:58:38;;;;;;;18.60;10.50;;;;;;;9.67;75.51;100299.10;107719;1257;73305;-72
2023/10/31 03:01:06;;;;;;;17.60;10.30;;;;;;;9.66;75.55;100297.98;107795;1256;71467;-71
2023/10/31 03:03:34;;;;;;;17.90;10.20;;;;;;;9.65;75.51;100298.20;107903;1256;72739;-71
2023/10/31 03:06:02;;;;;;;17.50;10.70;;;;;;;9.62;75.58;100293.91;107833;1256;61266;-72
2023/10/31 03:08:30;;;;;;;19.50;11.10;;;;;;;9.61;75.62;100290.98;107749;1256;61239;-71
2023/10/31 03:10:57;;;;;;;16.50;10.60;;;;;;;9.58;75.50;100293.36;107640;1256;74774;-71
2023/10/31 03:13:25;;;;;;;15.50;10.20;;;;;;;9.58;75.74;100290.96;108101;1256;71486;-72
2023/10/31 03:15:53;;;;;;;24.10;12.00;;;;;;;9.59;75.77;100293.15;108099;1257;71873;-71
2023/10/31 03:18:21;;;;;;;20.50;11.30;;;;;;;9.60;75.91;100294.59;107621;1256;61135;-71
2023/10/31 03:20:49;;;;;;;17.90;10.70;;;;;;;9.60;75.98;100295.13;108030;1255;61221;-71
2023/10/31 03:23:17;;;;;;;18.40;10.70;;;;;;;9.62;75.97;100297.27;107970;1256;72739;-72
2023/10/31 03:25:46;;;;;;;18.40;10.80;;;;;;;9.63;76.15;100300.54;107702;1256;71477;-72
2023/10/31 03:28:19;;;;;;;20.40;10.90;;;;;;;9.65;76.20;100298.63;107717;1256;72718;-71
2023/10/31 03:30:47;;;;;;;17.00;11.00;;;;;;;9.65;76.23;100298.90;108303;1257;61113;-71
2023/10/31 03:33:16;;;;;;;19.10;11.20;;;;;;;9.67;76.11;100299.54;107792;1257;61299;-72
2023/10/31 03:35:44;;;;;;;18.30;10.70;;;;;;;9.67;75.94;100303.22;107996;1257;73460;-71
2023/10/31 03:38:13;;;;;;;17.60;10.20;;;;;;;9.67;76.17;100308.07;107613;1257;71766;-72
2023/10/31 03:40:41;;;;;;;19.10;11.70;;;;;;;9.67;76.12;100306.42;107877;1256;71485;-73
2023/10/31 03:43:12;;;;;;;19.90;10.50;;;;;;;9.68;76.05;100308.95;107769;1261;61791;-72
2023/10/31 03:45:40;;;;;;;17.70;10.80;;;;;;;9.69;76.17;100309.16;107834;1257;61342;-71
2023/10/31 03:48:08;;;;;;;18.60;11.00;;;;;;;9.71;76.17;100311.16;107843;1257;74690;-71
2023/10/31 03:50:35;;;;;;;20.30;12.00;;;;;;;9.74;76.18;100312.38;107828;1257;73211;-71
2023/10/31 03:53:03;;;;;;;19.80;11.20;;;;;;;9.77;76.28;100312.27;107813;1256;71404;-72
2023/10/31 03:55:31;;;;;;;19.20;11.30;;;;;;;9.80;76.23;100316.44;107538;1257;61735;-71
2023/10/31 03:57:59;;;;;;;20.50;11.20;;;;;;;9.81;76.17;100313.89;107793;1256;61027;-71
2023/10/31 04:00:27;;;;;;;19.20;11.50;;;;;;;9.84;76.19;100312.79;108029;1256;73445;-71
2023/10/31 04:02:55;;;;;;;19.80;10.50;;;;;;;9.87;76.31;100310.71;107753;1256;71569;-72
2023/10/31 04:05:23;;;;;;;18.90;10.60;;;;;;;9.89;76.14;100313.23;107857;1257;71383;-71
2023/10/31 04:07:50;;;;;;;21.80;11.60;;;;;;;9.91;76.19;100318.41;107856;1257;61255;-72
2023/10/31 04:10:18;;;;;;;20.20;11.30;;;;;;;9.92;76.25;100317.52;107812;1257;61104;-70
2023/10/31 04:12:47;;;;;;;16.60;11.00;;;;;;;9.93;76.33;100316.23;107654;1257;74801;-72
2023/10/31 04:15:15;;;;;;;19.30;11.40;;;;;;;9.94;76.34;100308.89;107800;1257;72431;-71
2023/10/31 04:17:43;;;;;;;19.30;12.00;;;;;;;9.96;76.26;100311.13;107775;1256;71481;-72
2023/10/31 04:20:11;;;;;;;17.90;11.40;;;;;;;9.96;76.29;100308.20;107863;1257;61107;-72
2023/10/31 04:22:38;;;;;;;17.10;10.80;;;;;;;9.97;76.22;100306.09;107837;1258;60239;-72
2023/10/31 04:25:07;;;;;;;20.00;11.40;;;;;;;9.98;76.29;100308.96;107777;1257;73465;-72
2023/10/31 04:27:35;;;;;;;21.50;12.10;;;;;;;9.97;76.03;100309.08;107778;1257;72734;-72
2023/10/31 04:30:04;;;;;;;23.10;12.30;;;;;;;9.97;75.97;100311.88;107826;1258;72733;-71
2023/10/31 04:32:32;;;;;;;18.80;11.80;;;;;;;9.96;75.94;100312.30;107779;1256;61131;-72
2023/10/31 04:34:59;;;;;;;21.40;11.90;;;;;;;9.95;75.92;100308.15;107827;1256;61212;-72
2023/10/31 04:37:27;;;;;;;20.10;12.30;;;;;;;9.93;75.86;100309.83;107796;1256;73399;-72
2023/10/31 04:39:57;;;;;;;16.70;11.10;;;;;;;9.90;75.76;100306.02;107778;1257;71532;-71
2023/10/31 04:42:25;;;;;;;17.40;11.50;;;;;;;9.89;75.79;100307.58;107753;1257;70405;-72
2023/10/31 04:44:53;;;;;;;21.30;12.30;;;;;;;9.88;75.63;100311.95;107820;1258;61067;-72
2023/10/31 04:47:20;;;;;;;21.30;11.70;;;;;;;9.86;75.69;100312.52;107906;1256;61170;-72
2023/10/31 04:49:48;;;;;;;22.00;11.90;;;;;;;9.86;75.74;100316.20;107739;1256;73492;-72
2023/10/31 04:52:17;;;;;;;17.90;11.60;;;;;;;9.84;75.83;100320.23;107747;1257;72759;-72
2023/10/31 04:54:45;;;;;;;18.10;10.90;;;;;;;9.84;75.86;100318.23;107825;1260;72471;-72
2023/10/31 04:57:12;;;;;;;18.90;11.60;;;;;;;9.83;75.93;100325.36;107703;1256;61106;-71
2023/10/31 04:59:40;;;;;;;17.30;11.20;;;;;;;9.83;75.71;100327.11;107804;1257;61153;-73
2023/10/31 05:02:08;;;;;;;17.60;11.30;;;;;;;9.82;75.59;100332.19;107841;1256;74773;-72
2023/10/31 05:04:40;;;;;;;18.80;11.30;;;;;;;9.80;75.65;100338.08;107934;1257;72491;-71
2023/10/31 05:07:11;;;;;;;19.30;12.00;;;;;;;9.81;75.62;100338.33;107781;1259;73866;-73
2023/10/31 05:10:02;;;;;;;18.70;11.30;;;;;;;9.80;75.65;100337.02;107837;1257;60391;-73
2023/10/31 05:12:50;;;;;;;22.20;11.60;;;;;;;9.79;75.77;100336.91;107709;1256;63007;-72
2023/10/31 05:15:18;;;;;;;17.10;11.00;;;;;;;9.80;75.72;100339.57;107926;1256;73525;-72
2023/10/31 05:17:46;;;;;;;17.50;11.10;;;;;;;9.80;75.77;100340.23;107788;1256;71633;-72
2023/10/31 05:20:14;;;;;;;19.00;12.10;;;;;;;9.80;75.92;100340.80;107779;1256;71545;-72
2023/10/31 05:22:42;;;;;;;19.90;12.20;;;;;;;9.81;75.96;100343.64;107806;1256;62871;-71
2023/10/31 05:25:10;;;;;;;19.20;11.50;;;;;;;9.83;76.05;100347.45;107820;1256;61244;-71
2023/10/31 05:27:39;;;;;;;19.20;11.50;;;;;;;9.85;76.15;100344.15;107813;1256;74682;-72
2023/10/31 05:30:07;;;;;;;18.30;11.60;;;;;;;9.85;76.25;100337.80;107813;1256;71144;-72
2023/10/31 05:32:35;;;;;;;21.30;12.30;;;;;;;9.86;76.26;100331.35;107756;1256;72465;-72
2023/10/31 05:35:03;;;;;;;20.10;11.60;;;;;;;9.85;76.46;100328.27;107801;1256;61205;-72
2023/10/31 05:37:31;;;;;;;21.70;12.40;;;;;;;9.82;76.56;100327.16;107808;1256;61016;-72
2023/10/31 05:39:58;;;;;;;20.20;12.10;;;;;;;9.80;76.64;100323.15;107922;1257;74676;-72
2023/10/31 05:42:27;;;;;;;20.20;11.90;;;;;;;9.82;76.71;100334.90;107742;1257;75092;-71
2023/10/31 05:44:55;;;;;;;21.20;12.30;;;;;;;9.86;76.83;100337.55;107841;1256;72664;-72
2023/10/31 05:47:23;;;;;;;19.60;12.00;;;;;;;9.91;76.85;100332.88;107837;1256;61213;-72
2023/10/31 05:49:50;;;;;;;17.40;11.20;;;;;;;10.03;77.12;100336.09;107796;1256;61245;-72
2023/10/31 05:52:19;;;;;;;19.20;11.70;;;;;;;10.16;77.16;100339.52;107728;1256;73444;-73
2023/10/31 05:54:46;;;;;;;21.30;12.10;;;;;;;10.27;77.03;100344.05;107803;1257;72738;-72
2023/10/31 05:57:14;;;;;;;17.10;11.10;;;;;;;10.39;76.97;100339.98;107832;1257;71435;-72
2023/10/31 05:59:42;;;;;;;16.50;11.20;;;;;;;10.49;76.94;100340.61;107799;1257;63017;-72
2023/10/31 06:02:10;;;;;;;17.50;11.60;;;;;;;10.59;76.84;100344.55;107841;1257;61218;-72
2023/10/31 06:04:37;;;;;;;18.80;11.10;;;;;;;10.70;76.79;100340.58;107844;1257;72953;-72
2023/10/31 06:07:06;;;;;;;19.10;11.70;;;;;;;10.81;76.67;100339.17;107837;1257;71349;-72
2023/10/31 06:09:33;;;;;;;19.40;11.00;;;;;;;10.91;76.54;100332.77;107794;1261;72683;-71
2023/10/31 06:12:01;;;;;;;20.00;11.00;;;;;;;11.02;76.32;100330.06;107788;1257;61249;-74
2023/10/31 06:14:28;;;;;;;17.60;10.30;;;;;;;11.12;76.42;100328.52;107691;1257;60062;-72
2023/10/31 06:16:59;;;;;;;17.50;10.20;;;;;;;11.20;76.16;100320.64;107856;1257;74835;-73
2023/10/31 06:19:27;;;;;;;18.00;9.70;;;;;;;11.29;76.17;100322.23;107831;1258;71481;-71
2023/10/31 06:21:55;;;;;;;15.40;9.60;;;;;;;11.38;75.99;100322.29;107717;1257;71411;-73
2023/10/31 06:24:22;;;;;;;19.10;10.60;;;;;;;11.47;75.92;100323.10;107811;1257;61121;-72
2023/10/31 06:26:50;;;;;;;17.10;9.60;;;;;;;11.60;75.95;100321.69;107817;1257;60135;-72
2023/10/31 06:29:17;;;;;;;15.90;9.00;;;;;;;11.73;75.95;100322.47;107753;1257;74688;-74
2023/10/31 06:32:06;;;;;;;14.60;9.00;;;;;;;11.90;75.83;100321.29;107829;1257;73268;-72
2023/10/31 06:34:33;;;;;;;17.20;9.20;;;;;;;12.06;75.62;100320.19;107813;1257;72740;-72
2023/10/31 06:37:01;;;;;;;15.60;8.90;;;;;;;12.22;75.55;100324.95;107921;1256;61130;-73
2023/10/31 06:39:29;;;;;;;14.30;8.80;;;;;;;12.38;75.37;100318.77;107794;1256;61103;-72
2023/10/31 06:41:56;;;;;;;17.90;8.40;;;;;;;12.55;75.11;100315.06;107823;1256;74604;-72
2023/10/31 06:44:24;;;;;;;16.40;7.80;;;;;;;12.71;74.81;100312.98;107783;1256;71703;-73
2023/10/31 06:46:51;;;;;;;14.70;8.40;;;;;;;12.86;74.39;100312.52;107909;1256;72454;-71
2023/10/31 06:49:20;;;;;;;14.70;8.10;;;;;;;12.98;73.89;100307.73;107921;1256;61748;-72
2023/10/31 06:51:48;;;;;;;15.50;8.00;;;;;;;13.08;73.52;100298.86;107738;1257;61018;-72
2023/10/31 06:54:16;;;;;;;13.50;7.60;;;;;;;13.17;72.96;100296.55;107791;1256;76909;-71
2023/10/31 06:56:43;;;;;;;12.40;7.70;;;;;;;13.26;72.54;100297.20;107788;1261;71057;-71
2023/10/31 06:59:11;;;;;;;15.60;7.90;;;;;;;13.36;72.23;100299.31;107728;1257;71478;-72
2023/10/31 07:01:39;;;;;;;12.90;7.50;;;;;;;13.45;71.80;100301.27;107756;1257;61656;-72
2023/10/31 07:04:06;;;;;;;13.20;7.90;;;;;;;13.52;71.39;100301.32;107845;1262;61095;-72
2023/10/31 07:06:34;;;;;;;14.10;8.10;;;;;;;13.60;70.97;100302.54;107853;1259;73846;-71
2023/10/31 07:09:05;;;;;;;14.20;7.10;;;;;;;13.66;70.58;100298.55;107827;1257;72491;-72
2023/10/31 07:11:34;;;;;;;14.80;7.90;;;;;;;13.74;70.15;100297.13;107753;1257;71059;-71
2023/10/31 07:14:04;;;;;;;14.40;7.30;;;;;;;13.81;69.75;100295.13;107939;1256;61794;-72
2023/10/31 07:16:32;;;;;;;12.80;6.40;;;;;;;13.88;69.46;100307.14;107867;1257;61316;-71
2023/10/31 07:19:00;;;;;;;15.10;7.90;;;;;;;13.94;69.01;100314.05;107996;1257;74692;-73
2023/10/31 07:21:27;;;;;;;14.90;7.60;;;;;;;14.00;68.61;100315.06;107900;1260;71483;-72
2023/10/31 07:23:55;;;;;;;14.50;7.50;;;;;;;14.06;68.21;100314.88;107755;1257;72777;-72
2023/10/31 07:26:23;;;;;;;15.50;7.00;;;;;;;14.15;67.92;100311.89;107633;1257;60241;-72
2023/10/31 07:28:51;;;;;;;12.70;6.80;;;;;;;14.23;67.50;100309.55;107747;1256;61241;-71
2023/10/31 07:31:19;;;;;;;12.30;6.40;;;;;;;14.32;67.34;100310.45;107745;1256;73349;-72
2023/10/31 07:33:46;;;;;;;14.00;6.80;;;;;;;14.40;67.15;100307.45;107695;1257;73783;-73
2023/10/31 07:36:14;;;;;;;12.50;6.80;;;;;;;14.47;67.00;100298.98;107809;1256;71049;-73
2023/10/31 07:38:42;;;;;;;11.70;6.70;;;;;;;14.57;66.72;100289.99;107693;1256;61136;-71
2023/10/31 07:41:09;;;;;;;14.70;7.00;;;;;;;14.69;66.53;100285.10;107715;1256;61214;-72
2023/10/31 07:43:37;;;;;;;13.30;7.50;;;;;;;14.81;66.31;100280.05;107840;1256;73468;-71
2023/10/31 07:46:05;;;;;;;12.80;7.10;;;;;;;14.94;66.03;100288.98;107839;1256;71575;-73
2023/10/31 07:48:33;;;;;;;14.80;7.30;;;;;;;15.08;65.70;100292.21;107824;1256;71477;-73
2023/10/31 07:51:01;;;;;;;12.80;6.70;;;;;;;15.21;65.42;100287.60;107813;1256;60571;-73
2023/10/31 07:53:29;;;;;;;10.80;6.80;;;;;;;15.35;65.07;100288.16;107871;1256;61350;-72
2023/10/31 07:55:56;;;;;;;11.00;6.30;;;;;;;15.48;64.67;100284.17;107755;1256;73795;-72
2023/10/31 07:58:24;;;;;;;12.60;7.00;;;;;;;15.58;64.24;100277.53;107796;1257;71293;-72
2023/10/31 08:00:52;;;;;;;12.20;6.40;;;;;;;15.65;63.83;100271.27;107481;1257;231213;-73
2023/10/31 08:03:20;;;;;;;12.30;6.30;;;;;;;15.69;63.52;100269.44;107643;1257;61099;-72
2023/10/31 08:05:48;;;;;;;11.70;6.70;;;;;;;15.72;63.29;100271.54;107660;1258;61015;-72
2023/10/31 08:08:15;;;;;;;14.60;6.30;;;;;;;15.71;62.85;100269.15;107794;1257;74712;-72
2023/10/31 08:10:43;;;;;;;13.80;6.30;;;;;;;15.68;62.56;100264.89;107723;1256;71845;-71
2023/10/31 08:13:11;;;;;;;11.50;6.30;;;;;;;15.63;62.51;100260.31;107695;1257;73130;-72
2023/10/31 08:15:38;;;;;;;12.80;6.10;;;;;;;15.62;62.49;100255.83;107680;1258;61117;-72
2023/10/31 08:18:06;;;;;;;13.60;6.30;;;;;;;15.62;62.61;100251.02;107824;1256;61188;-73
2023/10/31 08:20:35;;;;;;;12.70;6.20;;;;;;;15.65;62.48;100247.38;107890;1256;73509;-72
2023/10/31 08:23:02;;;;;;;13.30;6.00;;;;;;;15.70;62.53;100238.09;107799;1256;72883;-71
2023/10/31 08:25:30;;;;;;;14.90;6.00;;;;;;;15.76;62.40;100235.11;107872;1256;72351;-72
2023/10/31 08:27:58;;;;;;;10.80;5.40;;;;;;;15.86;62.30;100236.66;107751;1257;61065;-72
2023/10/31 08:30:25;;;;;;;12.50;5.30;;;;;;;15.97;62.12;100230.13;107756;1258;60468;-72
2023/10/31 08:32:53;;;;;;;10.40;5.00;;;;;;;16.10;62.01;100230.08;107738;1257;74969;-72
2023/10/31 08:35:21;;;;;;;9.70;5.30;;;;;;;16.24;61.72;100222.82;107641;1256;74358;-72
2023/10/31 08:37:50;;;;;;;9.70;4.80;;;;;;;16.40;61.36;100222.20;107827;1256;72760;-72
2023/10/31 08:40:18;;;;;;;11.10;5.30;;;;;;;16.58;60.72;100221.48;107750;1257;60524;-73
2023/10/31 08:42:47;;;;;;;11.40;4.50;;;;;;;16.74;60.18;100219.98;107839;1256;61253;-72
2023/10/31 08:45:23;;;;;;;9.30;4.30;;;;;;;16.86;59.81;100216.20;107776;1256;73780;-71
2023/10/31 08:47:53;;;;;;;10.40;4.90;;;;;;;16.99;59.23;100205.42;107705;1259;72949;-71
2023/10/31 08:50:35;;;;;;;9.50;4.60;;;;;;;17.08;58.83;100201.20;107859;1259;71194;-73
2023/10/31 08:53:56;;;;;;;9.80;5.10;;;;;;;17.21;58.53;100201.96;107553;1259;61224;-71
2023/10/31 08:56:24;;;;;;;7.50;4.30;;;;;;;17.28;58.00;100195.16;107627;1256;61239;-71
2023/10/31 08:58:52;;;;;;;8.10;4.40;;;;;;;17.25;57.82;100191.38;107818;1256;72417;-72
2023/10/31 09:01:19;;;;;;;10.50;4.50;;;;;;;17.31;57.85;100192.73;107928;1256;72889;-71
2023/10/31 09:03:47;;;;;;;9.60;4.60;;;;;;;17.38;57.69;100191.02;107751;1256;71501;-72
2023/10/31 09:06:15;;;;;;;10.70;4.40;;;;;;;17.50;57.36;100183.02;107746;1256;61127;-73
2023/10/31 09:08:43;;;;;;;8.30;4.40;;;;;;;17.45;57.44;100179.70;107821;1256;61018;-72
2023/10/31 09:11:10;;;;;;;11.80;4.60;;;;;;;17.51;57.40;100171.50;107737;1257;74799;-73
2023/10/31 09:13:38;;;;;;;10.50;4.90;;;;;;;17.62;57.35;100164.38;107846;1256;73196;-74
2023/10/31 09:16:09;;;;;;;10.30;4.50;;;;;;;17.75;57.42;100157.91;107678;1258;75025;-72
2023/10/31 09:18:37;;;;;;;11.10;4.90;;;;;;;17.87;57.26;100151.92;107935;1258;61276;-72
2023/10/31 09:21:05;;;;;;;8.60;4.10;;;;;;;18.02;57.05;100147.46;107691;1257;61238;-70
2023/10/31 09:23:33;;;;;;;11.60;4.90;;;;;;;18.18;56.84;100137.89;107858;1257;75137;-72
2023/10/31 09:26:02;;;;;;;8.20;4.40;;;;;;;18.36;56.59;100135.66;107811;1259;72842;-73
2023/10/31 09:28:30;;;;;;;10.20;4.40;;;;;;;18.52;56.13;100127.73;107781;1257;72866;-73
2023/10/31 09:30:59;;;;;;;9.10;4.30;;;;;;;18.67;55.64;100118.09;107724;1258;62340;-72
2023/10/31 09:33:27;;;;;;;9.60;4.40;;;;;;;18.90;54.91;100117.75;107797;1256;61233;-75
2023/10/31 09:35:56;;;;;;;8.30;4.10;;;;;;;18.94;54.61;100118.30;107979;1256;76844;-72
2023/10/31 09:38:23;;;;;;;9.70;3.60;;;;;;;19.05;54.37;100116.97;107786;1256;71615;-73
2023/10/31 09:40:51;;;;;;;9.40;3.90;;;;;;;19.32;53.68;100116.44;107921;1256;71309;-72
2023/10/31 09:43:20;;;;;;;8.70;3.80;;;;;;;19.52;53.37;100115.75;107776;1257;61105;-72
2023/10/31 09:45:48;;;;;;;7.80;3.90;;;;;;;19.57;53.02;100114.96;107767;1256;61234;-74
2023/10/31 09:48:15;;;;;;;9.70;4.00;;;;;;;19.69;52.46;100114.05;107929;1256;75068;-71
2023/10/31 09:50:43;;;;;;;10.80;4.50;;;;;;;19.54;52.69;100112.65;107678;1256;71629;-72
2023/10/31 09:53:11;;;;;;;8.00;4.00;;;;;;;19.40;52.54;100110.77;107619;1257;72740;-72
2023/10/31 09:55:39;;;;;;;7.80;4.30;;;;;;;19.33;52.75;100108.67;107699;1258;61134;-71
2023/10/31 09:58:07;;;;;;;8.30;3.90;;;;;;;19.33;52.97;100105.42;107795;1257;61023;-72
2023/10/31 10:00:36;;;;;;;7.80;4.10;;;;;;;19.38;53.31;100107.09;107747;1258;74666;-73
2023/10/31 10:03:04;;;;;;;8.90;4.50;;;;;;;19.45;53.44;100103.04;107714;1256;71922;-72
2023/10/31 10:05:32;;;;;;;8.80;4.00;;;;;;;19.56;53.41;100101.98;107680;1256;73312;-72
2023/10/31 10:08:00;;;;;;;11.30;4.70;;;;;;;19.67;53.30;100100.55;107721;1257;61067;-72
2023/10/31 10:10:29;;;;;;;8.20;3.80;;;;;;;19.75;53.27;100091.05;107796;1256;61115;-72
2023/10/31 10:12:56;;;;;;;8.00;4.00;;;;;;;19.85;53.08;100082.60;107967;1256;76969;-72
2023/10/31 10:15:24;;;;;;;7.30;3.50;;;;;;;19.96;52.79;100080.79;107759;1258;71961;-72
2023/10/31 10:18:00;;;;;;;7.10;3.60;;;;;;;20.06;52.80;100079.95;107786;1257;71829;-72
2023/10/31 10:20:28;;;;;;;9.50;4.10;;;;;;;20.17;52.41;100070.50;107852;1258;61920;-73
2023/10/31 10:22:57;;;;;;;8.40;3.60;;;;;;;20.26;52.13;100066.63;107894;1258;61261;-73
2023/10/31 10:25:25;;;;;;;8.90;3.80;;;;;;;20.35;51.90;100066.19;107813;1258;73581;-69
2023/10/31 10:27:57;;;;;;;8.90;4.50;;;;;;;20.43;51.59;100066.77;107777;1257;72423;-71
2023/10/31 10:30:25;;;;;;;9.00;4.10;;;;;;;20.48;51.47;100066.04;107774;1257;73592;-71
2023/10/31 10:32:53;;;;;;;7.40;4.10;;;;;;;20.52;51.20;100060.83;107745;1257;61205;-74
2023/10/31 10:35:21;;;;;;;9.20;4.40;;;;;;;20.60;51.12;100063.65;107771;1258;61187;-72
2023/10/31 10:37:48;;;;;;;7.50;3.70;;;;;;;20.72;50.72;100060.17;107759;1256;74775;-73
2023/10/31 10:40:16;;;;;;;7.50;4.10;;;;;;;20.87;50.24;100061.30;107698;1256;71494;-72
2023/10/31 10:42:49;;;;;;;10.40;4.10;;;;;;;20.89;50.07;100055.15;107680;1259;72763;-72
2023/10/31 10:45:17;;;;;;;17.80;6.80;;;;;;;20.91;49.96;100057.69;107748;1258;59134;-75
2023/10/31 10:47:47;;;;;;;7.90;4.20;;;;;;;20.93;49.97;100054.76;107825;1256;61846;-72
2023/10/31 10:50:15;;;;;;;7.30;3.20;;;;;;;20.98;49.84;100058.48;107797;1258;73460;-73
2023/10/31 10:52:54;;;;;;;16.30;6.40;;;;;;;21.04;49.75;100057.95;107733;1257;71974;-73
2023/10/31 10:55:25;;;;;;;8.10;3.20;;;;;;;21.10;49.47;100052.55;107776;1256;74919;-73
2023/10/31 10:57:54;;;;;;;9.80;4.20;;;;;;;21.13;49.03;100049.63;107737;1259;61362;-74
2023/10/31 11:00:24;;;;;;;11.30;4.70;;;;;;;21.16;49.08;100042.43;107760;1256;61431;-74
2023/10/31 11:02:54;;;;;;;17.40;5.80;;;;;;;21.18;48.84;100036.27;107761;1256;74774;-73
2023/10/31 11:05:23;;;;;;;12.80;5.20;;;;;;;21.19;48.89;100034.54;107811;1256;72995;-74
2023/10/31 11:07:51;;;;;;;20.10;5.50;;;;;;;21.20;48.84;100033.89;107683;1259;73717;-73
2023/10/31 11:10:19;;;;;;;12.40;5.20;;;;;;;21.21;48.92;100029.16;107739;1259;62252;-73
2023/10/31 11:12:47;;;;;;;15.80;5.80;;;;;;;21.23;49.09;100031.02;107958;1256;61227;-73
2023/10/31 11:15:16;;;;;;;11.70;5.10;;;;;;;21.27;49.26;100026.33;107724;1256;74704;-73